createdAt,value
2022-11-23T00:01:24.008Z,1.40
2022-11-23T00:04:53.218Z,1.50
2022-11-23T00:08:18.499Z,0.90
2022-11-23T00:11:43.745Z,1.30
2022-11-23T00:15:09.327Z,1.20
2022-11-23T00:18:34.621Z,1.03
2022-11-23T00:22:04.600Z,0.87
2022-11-23T00:25:29.917Z,1.33
2022-11-23T00:28:55.742Z,0.90
2022-11-23T00:32:21.303Z,0.90
2022-11-23T00:35:46.863Z,1.27
2022-11-23T00:39:12.117Z,1.10
2022-11-23T00:42:38.367Z,1.10
2022-11-23T00:46:12.912Z,0.90
2022-11-23T00:49:38.292Z,1.00
2022-11-23T00:53:03.625Z,1.03
2022-11-23T00:56:30.391Z,1.20
2022-11-23T00:59:56.259Z,1.30
2022-11-23T01:03:21.598Z,0.73
2022-11-23T01:06:46.781Z,1.10
2022-11-23T01:10:13.483Z,1.10
2022-11-23T01:13:39.841Z,1.33
2022-11-23T01:17:25.419Z,1.33
2022-11-23T01:20:50.743Z,1.20
2022-11-23T01:24:17.892Z,0.90
2022-11-23T01:27:43.426Z,1.03
2022-11-23T01:31:10.578Z,0.80
2022-11-23T01:34:36.035Z,1.07
2022-11-23T01:38:01.712Z,0.77
2022-11-23T01:41:34.195Z,0.70
2022-11-23T01:45:19.631Z,0.80
2022-11-23T01:48:53.837Z,0.70
2022-11-23T01:52:26.697Z,1.30
2022-11-23T01:55:59.030Z,1.27
2022-11-23T01:59:26.450Z,0.73
2022-11-23T02:02:55.054Z,1.00
2022-11-23T02:06:23.280Z,1.10
2022-11-23T02:09:50.542Z,1.00
2022-11-23T02:13:16.422Z,1.10
2022-11-23T02:16:42.152Z,0.87
2022-11-23T02:20:13.502Z,1.10
2022-11-23T02:24:00.554Z,1.40
2022-11-23T02:27:26.925Z,0.97
2022-11-23T02:30:54.655Z,1.10
2022-11-23T02:34:20.479Z,0.97
2022-11-23T02:37:46.952Z,1.20
2022-11-23T02:41:19.767Z,1.03
2022-11-23T02:44:50.212Z,1.40
2022-11-23T02:48:15.676Z,1.40
2022-11-23T02:51:40.868Z,1.20
2022-11-23T02:55:06.624Z,1.00
2022-11-23T02:58:31.824Z,1.17
2022-11-23T03:01:57.402Z,1.07
2022-11-23T03:05:22.689Z,0.93
2022-11-23T03:08:48.157Z,1.10
2022-11-23T03:12:13.377Z,0.80
2022-11-23T03:15:38.917Z,1.10
2022-11-23T03:19:04.135Z,1.20
2022-11-23T03:22:29.584Z,0.70
2022-11-23T03:25:58.587Z,1.17
2022-11-23T03:29:26.746Z,1.00
2022-11-23T03:32:52.386Z,1.47
2022-11-23T03:36:17.787Z,1.27
2022-11-23T03:39:47.199Z,1.33
2022-11-23T03:43:14.010Z,1.27
2022-11-23T03:46:39.649Z,0.80
2022-11-23T03:50:05.252Z,0.90
2022-11-23T03:53:30.447Z,1.50
2022-11-23T03:56:57.860Z,1.03
2022-11-23T04:00:23.098Z,1.17
2022-11-23T04:03:48.370Z,1.00
2022-11-23T04:07:13.623Z,1.13
2022-11-23T04:10:39.189Z,1.07
2022-11-23T04:14:04.354Z,1.13
2022-11-23T04:17:29.808Z,1.20
2022-11-23T04:20:54.945Z,1.00
2022-11-23T04:24:20.570Z,1.03
2022-11-23T04:27:45.892Z,1.00
2022-11-23T04:31:11.971Z,0.87
2022-11-23T04:34:37.221Z,1.10
2022-11-23T04:38:02.724Z,1.20
2022-11-23T04:41:27.946Z,1.10
2022-11-23T04:44:53.305Z,1.13
2022-11-23T04:48:18.486Z,0.77
2022-11-23T04:51:43.857Z,0.87
2022-11-23T04:55:09.148Z,0.93
2022-11-23T04:58:36.643Z,1.13
2022-11-23T05:02:01.946Z,1.20
2022-11-23T05:05:27.326Z,1.23
2022-11-23T05:08:52.493Z,0.97
2022-11-23T05:12:17.850Z,1.13
2022-11-23T05:15:43.021Z,0.70
2022-11-23T05:19:09.794Z,0.80
2022-11-23T05:22:34.984Z,1.20
2022-11-23T05:26:00.377Z,1.40
2022-11-23T05:29:25.593Z,1.47
2022-11-23T05:32:51.065Z,1.13
2022-11-23T05:36:16.374Z,1.10
2022-11-23T05:39:41.878Z,1.10
2022-11-23T05:43:07.104Z,1.40
2022-11-23T05:46:32.536Z,1.43
2022-11-23T05:49:57.730Z,1.00
2022-11-23T05:53:24.025Z,0.80
2022-11-23T05:56:49.300Z,1.20
2022-11-23T06:00:14.881Z,1.00
2022-11-23T06:04:00.139Z,1.30
2022-11-23T06:07:25.596Z,1.57
2022-11-23T06:10:50.798Z,0.87
2022-11-23T13:29:53.290Z,2.87
2022-11-23T14:15:22.990Z,3.37
2022-11-23T14:19:32.705Z,3.30
